Time;durP1;ratioP1;P1;durP2;ratioP2;P2;SDS_P1;SDS_P2;PMS_P1;PMS_P2;Temp;Humidity;BMP_temperature;BMP_pressure;BME280_temperature;BME280_humidity;BME280_pressure;Samples;Min_cycle;Max_cycle;Signal;HPM_P1;HPM_P2
2022/09/15 00:01:08;;;;;;;0.00;0.00;;;16.30;99.90;;;;;;4994442;28;20311;-76
2022/09/15 00:03:36;;;;;;;0.00;0.00;;;16.20;99.90;;;;;;4999556;28;20227;-76
2022/09/15 00:06:04;;;;;;;0.00;0.00;;;16.20;99.90;;;;;;5002485;28;20243;-76
2022/09/15 00:08:34;;;;;;;0.00;0.00;;;16.20;99.90;;;;;;5004732;28;20738;-76
2022/09/15 00:11:06;;;;;;;0.00;0.00;;;16.20;99.90;;;;;;4983947;28;20366;-76
2022/09/15 00:13:34;;;;;;;0.00;0.00;;;16.10;99.90;;;;;;5003223;28;20569;-76
2022/09/15 00:16:03;;;;;;;0.00;0.00;;;16.20;99.90;;;;;;5003421;28;20266;-76
2022/09/15 00:18:32;;;;;;;0.00;0.00;;;16.20;99.90;;;;;;5000073;28;20243;-76
2022/09/15 00:21:03;;;;;;;0.00;0.00;;;16.20;99.90;;;;;;4999515;28;20286;-76
2022/09/15 00:23:33;;;;;;;0.00;0.00;;;16.20;99.90;;;;;;5001012;28;20552;-76
2022/09/15 00:26:01;;;;;;;0.00;0.00;;;16.20;99.90;;;;;;5001771;28;20207;-76
2022/09/15 00:28:29;;;;;;;0.00;0.00;;;16.30;99.90;;;;;;5005274;28;20243;-76
2022/09/15 00:30:57;;;;;;;0.00;0.00;;;16.30;99.90;;;;;;5012835;28;20231;-76
2022/09/15 00:33:24;;;;;;;0.00;0.00;;;16.30;99.90;;;;;;5007477;28;20246;-76
2022/09/15 00:35:53;;;;;;;0.00;0.00;;;16.30;99.90;;;;;;4996902;28;20230;-76
2022/09/15 00:38:21;;;;;;;0.00;0.00;;;16.30;99.90;;;;;;5001371;28;20218;-76
2022/09/15 00:40:52;;;;;;;0.00;0.00;;;16.30;99.90;;;;;;4997522;28;20223;-76
2022/09/15 00:43:22;;;;;;;0.00;0.00;;;16.30;99.90;;;;;;5008553;28;20208;-76
2022/09/15 00:45:51;;;;;;;0.00;0.00;;;16.30;99.90;;;;;;4995845;28;20200;-76
2022/09/15 00:48:22;;;;;;;0.00;0.00;;;16.30;99.90;;;;;;5009344;28;20200;-76
2022/09/15 00:50:53;;;;;;;0.00;0.00;;;16.30;99.90;;;;;;5014433;28;20714;-76
2022/09/15 00:53:22;;;;;;;0.00;0.00;;;16.30;99.90;;;;;;5005273;28;20200;-76
2022/09/15 00:55:52;;;;;;;0.00;0.00;;;16.30;99.90;;;;;;4995419;28;20266;-75
2022/09/15 00:58:23;;;;;;;0.00;0.00;;;16.20;99.90;;;;;;5004525;28;20258;-75
2022/09/15 01:01:01;;;;;;;0.00;0.00;;;16.20;99.90;;;;;;5006646;28;20239;-75
2022/09/15 01:03:32;;;;;;;0.00;0.00;;;16.30;99.90;;;;;;4991215;28;20212;-76
2022/09/15 01:06:06;;;;;;;0.00;0.00;;;16.30;99.90;;;;;;5006489;28;20250;-76
2022/09/15 01:08:39;;;;;;;0.00;0.00;;;16.40;99.90;;;;;;4995020;28;20200;-76
2022/09/15 01:11:08;;;;;;;0.00;0.00;;;16.30;99.90;;;;;;4988119;28;20380;-76
2022/09/15 01:13:36;;;;;;;0.00;0.00;;;16.40;99.90;;;;;;5002443;28;20209;-75
2022/09/15 01:16:14;;;;;;;0.00;0.00;;;16.40;99.90;;;;;;5003320;28;20208;-75
2022/09/15 01:18:53;;;;;;;0.00;0.00;;;16.40;99.90;;;;;;5004335;28;20212;-75
2022/09/15 01:21:34;;;;;;;0.00;0.00;;;16.40;99.90;;;;;;5026573;23;20231;-76
2022/09/15 01:24:42;;;;;;;0.00;0.00;;;16.40;99.90;;;;;;4997493;28;20619;-76
2022/09/15 01:27:42;;;;;;;0.00;0.00;;;16.40;99.90;;;;;;4997671;28;20227;-77
2022/09/15 01:30:14;;;;;;;0.00;0.00;;;16.40;99.90;;;;;;5003193;28;20216;-76
2022/09/15 01:33:12;;;;;;;0.00;0.00;;;16.30;99.90;;;;;;5007336;28;20281;-76
2022/09/15 01:35:50;;;;;;;0.00;0.00;;;16.40;99.90;;;;;;4991878;28;20303;-76
2022/09/15 01:38:27;;;;;;;0.00;0.00;;;16.30;99.90;;;;;;5004170;28;20212;-76
2022/09/15 01:41:01;;;;;;;0.00;0.00;;;16.30;99.90;;;;;;5006929;28;20223;-76
2022/09/15 01:43:31;;;;;;;0.00;0.00;;;16.30;99.90;;;;;;5005387;28;20249;-76
2022/09/15 01:46:02;;;;;;;0.00;0.00;;;16.30;99.90;;;;;;5004438;28;20614;-76
2022/09/15 01:48:32;;;;;;;0.00;0.00;;;16.30;99.90;;;;;;5006265;28;20234;-76
2022/09/15 01:51:03;;;;;;;0.00;0.00;;;16.30;99.90;;;;;;5005066;28;20219;-76
2022/09/15 01:53:31;;;;;;;0.00;0.00;;;16.30;99.90;;;;;;5007197;28;20286;-76
2022/09/15 01:56:03;;;;;;;0.00;0.00;;;16.10;99.90;;;;;;5012025;28;20235;-76
2022/09/15 01:58:32;;;;;;;0.00;0.00;;;16.00;99.90;;;;;;5007444;28;20200;-75
2022/09/15 02:01:05;;;;;;;0.00;0.00;;;16.00;99.90;;;;;;5009763;28;20232;-76
2022/09/15 02:03:38;;;;;;;0.00;0.00;;;16.00;99.90;;;;;;5004226;28;20207;-76
2022/09/15 02:06:13;;;;;;;0.00;0.00;;;16.00;99.90;;;;;;5010026;28;20212;-75
2022/09/15 02:08:46;;;;;;;0.00;0.00;;;16.10;99.90;;;;;;5005506;28;20211;-76
2022/09/15 02:11:17;;;;;;;0.00;0.00;;;16.00;99.90;;;;;;5002297;28;20227;-76
2022/09/15 02:13:52;;;;;;;0.00;0.00;;;15.90;99.90;;;;;;5009063;28;20200;-76
2022/09/15 02:16:24;;;;;;;0.00;0.00;;;15.80;99.90;;;;;;5005025;28;20286;-76
2022/09/15 02:19:02;;;;;;;0.00;0.00;;;15.80;99.90;;;;;;5006223;28;20207;-76
2022/09/15 02:21:36;;;;;;;0.00;0.00;;;15.80;99.90;;;;;;5005515;28;20242;-76
2022/09/15 02:24:10;;;;;;;0.00;0.00;;;15.80;99.90;;;;;;5000433;28;20645;-76
2022/09/15 02:26:41;;;;;;;0.00;0.00;;;15.80;99.90;;;;;;5006530;28;20253;-76
2022/09/15 02:29:13;;;;;;;0.00;0.00;;;15.80;99.90;;;;;;5004889;28;20262;-76
2022/09/15 02:31:43;;;;;;;0.00;0.00;;;15.80;99.90;;;;;;5007323;28;20227;-77
2022/09/15 02:34:15;;;;;;;0.00;0.00;;;15.80;99.90;;;;;;5008895;28;20212;-75
2022/09/15 02:36:44;;;;;;;0.00;0.00;;;15.90;99.90;;;;;;5005711;28;20263;-75
2022/09/15 02:39:18;;;;;;;0.00;0.00;;;16.00;99.90;;;;;;5003992;28;20625;-75
2022/09/15 02:41:46;;;;;;;0.00;0.00;;;16.10;99.90;;;;;;5003130;28;20312;-75
2022/09/15 02:44:13;;;;;;;0.00;0.00;;;16.00;99.90;;;;;;5003592;28;20239;-75
2022/09/15 02:46:43;;;;;;;0.00;0.00;;;16.10;99.90;;;;;;5005451;28;20278;-74
2022/09/15 02:49:12;;;;;;;0.00;0.00;;;16.10;99.90;;;;;;5008099;28;20667;-74
2022/09/15 02:51:39;;;;;;;0.00;0.00;;;16.20;99.90;;;;;;5002961;28;21355;-75
2022/09/15 02:54:07;;;;;;;0.00;0.00;;;16.20;99.90;;;;;;4999942;28;20208;-75
2022/09/15 02:56:36;;;;;;;0.00;0.00;;;16.30;99.90;;;;;;5004770;28;20710;-76
2022/09/15 02:59:03;;;;;;;0.00;0.00;;;16.30;99.90;;;;;;5005870;28;20227;-75
2022/09/15 03:01:33;;;;;;;0.00;0.00;;;16.30;99.90;;;;;;5006748;28;20302;-75
2022/09/15 03:04:03;;;;;;;0.00;0.00;;;16.30;99.90;;;;;;5003767;28;20203;-75
2022/09/15 03:06:34;;;;;;;0.00;0.00;;;16.30;99.90;;;;;;4995113;28;20247;-76
2022/09/15 03:09:05;;;;;;;0.00;0.00;;;16.30;99.90;;;;;;4987002;28;20254;-75
2022/09/15 03:11:33;;;;;;;0.00;0.00;;;16.30;99.90;;;;;;5012677;28;20223;-75
2022/09/15 03:14:02;;;;;;;0.00;0.00;;;16.30;99.90;;;;;;5001330;28;20250;-75
2022/09/15 03:16:32;;;;;;;0.00;0.00;;;16.30;99.90;;;;;;5016515;28;20563;-75
2022/09/15 03:19:00;;;;;;;0.00;0.00;;;16.40;99.90;;;;;;5014729;28;20318;-75
2022/09/15 03:21:30;;;;;;;0.00;0.00;;;16.30;99.90;;;;;;4997033;28;20721;-76
2022/09/15 03:23:59;;;;;;;0.00;0.00;;;16.30;99.90;;;;;;5010102;28;20240;-76
2022/09/15 03:26:27;;;;;;;0.00;0.00;;;16.30;99.90;;;;;;5008933;28;20208;-76
2022/09/15 03:28:55;;;;;;;0.00;0.00;;;16.30;99.90;;;;;;4994607;28;20236;-76
2022/09/15 03:31:22;;;;;;;0.00;0.00;;;16.30;99.90;;;;;;4999563;28;20234;-76
2022/09/15 03:33:53;;;;;;;0.00;0.00;;;16.30;99.90;;;;;;5012881;28;20275;-76
2022/09/15 03:36:21;;;;;;;0.00;0.00;;;16.30;99.90;;;;;;5012036;28;20195;-76
2022/09/15 03:38:51;;;;;;;0.00;0.00;;;16.30;99.90;;;;;;5010156;28;20329;-76
2022/09/15 03:41:19;;;;;;;0.00;0.00;;;16.30;99.90;;;;;;4993685;28;20255;-77
2022/09/15 03:43:46;;;;;;;0.00;0.00;;;16.30;99.90;;;;;;5012138;28;20211;-76
2022/09/15 03:46:14;;;;;;;0.00;0.00;;;16.30;99.90;;;;;;5004528;28;20287;-76
2022/09/15 03:48:42;;;;;;;0.00;0.00;;;16.30;99.90;;;;;;4999434;28;20212;-76
2022/09/15 03:51:10;;;;;;;0.00;0.00;;;16.30;99.90;;;;;;4997556;28;20269;-76
2022/09/15 03:53:40;;;;;;;0.00;0.00;;;16.30;99.90;;;;;;5010975;28;20199;-76
2022/09/15 03:56:13;;;;;;;0.00;0.00;;;16.20;99.90;;;;;;5012023;28;20192;-76
2022/09/15 03:58:41;;;;;;;0.10;0.10;;;16.20;99.90;;;;;;5007159;28;20211;-77
2022/09/15 04:01:09;;;;;;;0.00;0.00;;;16.20;99.90;;;;;;5005663;28;20219;-77
2022/09/15 04:03:37;;;;;;;0.00;0.00;;;16.20;99.90;;;;;;5010420;28;20804;-76
2022/09/15 04:06:13;;;;;;;0.00;0.00;;;16.30;99.90;;;;;;5007356;28;20667;-75
2022/09/15 04:08:41;;;;;;;0.00;0.00;;;16.30;99.90;;;;;;5007565;28;20197;-75
2022/09/15 04:11:12;;;;;;;0.00;0.00;;;16.20;99.90;;;;;;5006576;28;20231;-75
2022/09/15 04:13:41;;;;;;;0.10;0.10;;;16.20;99.90;;;;;;4997705;28;20337;-75
2022/09/15 04:16:11;;;;;;;0.00;0.00;;;16.10;99.90;;;;;;5002381;28;20200;-75
2022/09/15 04:18:39;;;;;;;0.00;0.00;;;16.10;99.90;;;;;;5011211;28;20207;-75
2022/09/15 04:21:08;;;;;;;0.00;0.00;;;16.00;99.90;;;;;;5005063;28;20270;-75
2022/09/15 04:23:36;;;;;;;0.00;0.00;;;16.00;99.90;;;;;;5007696;28;20208;-76
2022/09/15 04:26:06;;;;;;;0.00;0.00;;;15.90;99.90;;;;;;5001206;28;20227;-76
2022/09/15 04:28:37;;;;;;;0.00;0.00;;;16.00;99.90;;;;;;4999415;28;20253;-76
2022/09/15 04:31:07;;;;;;;0.00;0.00;;;16.00;99.90;;;;;;4998755;28;20780;-76
2022/09/15 04:33:36;;;;;;;0.00;0.00;;;16.00;99.90;;;;;;5004085;28;20266;-76
2022/09/15 04:36:06;;;;;;;0.00;0.00;;;16.00;99.90;;;;;;4996338;28;20200;-76
2022/09/15 04:38:34;;;;;;;0.00;0.00;;;16.00;99.90;;;;;;5010982;28;20204;-77
2022/09/15 04:41:03;;;;;;;0.00;0.00;;;16.00;99.90;;;;;;5011135;28;20278;-76
2022/09/15 04:43:31;;;;;;;0.00;0.00;;;16.10;99.90;;;;;;5009983;28;20675;-77
2022/09/15 04:46:00;;;;;;;0.00;0.00;;;16.10;99.90;;;;;;5005574;28;20250;-77
2022/09/15 04:48:30;;;;;;;0.00;0.00;;;16.10;99.90;;;;;;5009273;28;20568;-76
2022/09/15 04:51:01;;;;;;;0.00;0.00;;;16.10;99.90;;;;;;5011250;28;20282;-76
2022/09/15 04:53:30;;;;;;;0.00;0.00;;;16.10;99.90;;;;;;5013828;28;20612;-76
2022/09/15 04:56:03;;;;;;;0.00;0.00;;;16.10;99.90;;;;;;5002277;28;20208;-76
2022/09/15 04:58:31;;;;;;;0.00;0.00;;;16.10;99.90;;;;;;4995617;28;20255;-76
2022/09/15 05:01:07;;;;;;;0.00;0.00;;;16.10;99.90;;;;;;4996215;28;20310;-76
2022/09/15 05:03:36;;;;;;;0.00;0.00;;;16.10;99.90;;;;;;5002261;28;20266;-77
2022/09/15 05:06:05;;;;;;;0.00;0.00;;;16.10;99.90;;;;;;5021256;28;20204;-77
2022/09/15 05:08:33;;;;;;;0.00;0.00;;;16.00;99.90;;;;;;5003009;28;20207;-77
2022/09/15 05:11:02;;;;;;;0.00;0.00;;;16.00;99.90;;;;;;5006026;28;20224;-77
2022/09/15 05:13:30;;;;;;;0.05;0.05;;;16.00;99.90;;;;;;5003424;28;20257;-76
2022/09/15 05:16:05;;;;;;;0.00;0.00;;;16.00;99.90;;;;;;4990415;28;20200;-77
2022/09/15 05:18:34;;;;;;;0.00;0.00;;;15.90;99.90;;;;;;4975807;28;20222;-78
2022/09/15 05:21:04;;;;;;;0.00;0.00;;;15.90;99.90;;;;;;4993441;28;20277;-77
2022/09/15 05:23:33;;;;;;;0.10;0.10;;;15.90;99.90;;;;;;5002736;28;20258;-76
2022/09/15 05:26:03;;;;;;;0.05;0.05;;;15.90;99.90;;;;;;4993384;28;20208;-77
2022/09/15 05:28:32;;;;;;;0.00;0.00;;;15.80;99.90;;;;;;4992787;28;20236;-77
2022/09/15 05:31:00;;;;;;;0.00;0.00;;;15.70;99.90;;;;;;4985200;28;20327;-77
2022/09/15 05:33:29;;;;;;;0.00;0.00;;;15.70;99.90;;;;;;5001126;28;20235;-77
2022/09/15 05:35:59;;;;;;;0.00;0.00;;;15.60;99.90;;;;;;5012198;28;20222;-77
2022/09/15 05:38:30;;;;;;;0.00;0.00;;;15.60;99.90;;;;;;5011335;28;20226;-77
2022/09/15 05:41:02;;;;;;;0.00;0.00;;;15.60;99.90;;;;;;5012380;28;20258;-77
2022/09/15 05:43:31;;;;;;;0.00;0.00;;;15.60;99.90;;;;;;5007600;28;20267;-78
2022/09/15 05:46:00;;;;;;;0.00;0.00;;;15.60;99.90;;;;;;5017166;28;20199;-76
2022/09/15 05:48:29;;;;;;;0.00;0.00;;;15.60;99.90;;;;;;5013659;28;20200;-77
2022/09/15 05:50:58;;;;;;;0.08;0.08;;;15.70;99.90;;;;;;5012740;28;20215;-78
2022/09/15 05:53:26;;;;;;;0.00;0.00;;;15.70;99.90;;;;;;4994684;28;20618;-77
2022/09/15 05:55:55;;;;;;;0.10;0.10;;;15.70;99.90;;;;;;4995829;28;20193;-76
2022/09/15 05:58:24;;;;;;;0.00;0.00;;;15.70;99.90;;;;;;5013263;28;20234;-77
2022/09/15 06:00:52;;;;;;;0.00;0.00;;;15.60;99.90;;;;;;5007902;28;20225;-78
2022/09/15 06:03:20;;;;;;;0.08;0.08;;;15.60;99.90;;;;;;5005530;28;20215;-76
2022/09/15 06:05:58;;;;;;;0.00;0.00;;;15.60;99.90;;;;;;5012039;28;20732;-76
2022/09/15 06:08:26;;;;;;;0.00;0.00;;;15.60;99.90;;;;;;5013772;28;20732;-76
2022/09/15 06:10:53;;;;;;;0.00;0.00;;;15.70;99.90;;;;;;5013026;28;20309;-76
2022/09/15 06:13:21;;;;;;;0.00;0.00;;;15.70;99.90;;;;;;5000721;28;20231;-76
2022/09/15 06:15:49;;;;;;;0.00;0.00;;;15.70;99.90;;;;;;5000458;28;20196;-76
2022/09/15 06:18:17;;;;;;;0.10;0.10;;;15.70;99.90;;;;;;4995146;28;20204;-76
2022/09/15 06:20:44;;;;;;;0.00;0.00;;;15.70;99.90;;;;;;5005629;28;20498;-76
2022/09/15 06:23:14;;;;;;;0.00;0.00;;;15.70;99.90;;;;;;4996825;28;20251;-76
2022/09/15 06:25:41;;;;;;;0.00;0.00;;;15.80;99.90;;;;;;4995091;28;20200;-76
2022/09/15 06:28:09;;;;;;;0.00;0.00;;;15.80;99.90;;;;;;4999322;28;20204;-76
2022/09/15 06:30:39;;;;;;;0.00;0.00;;;15.80;99.90;;;;;;5006876;28;20392;-76
2022/09/15 06:33:06;;;;;;;0.00;0.00;;;15.80;99.90;;;;;;5003826;28;20571;-76
2022/09/15 06:35:34;;;;;;;0.00;0.00;;;15.80;99.90;;;;;;5014783;28;20682;-76
2022/09/15 06:38:02;;;;;;;0.00;0.00;;;15.80;99.90;;;;;;4995315;28;20208;-77
2022/09/15 06:40:31;;;;;;;0.00;0.00;;;15.70;99.90;;;;;;4994921;28;20227;-76
2022/09/15 06:42:59;;;;;;;0.00;0.00;;;15.70;99.90;;;;;;4995157;28;20260;-76
2022/09/15 06:45:27;;;;;;;0.03;0.03;;;15.70;99.90;;;;;;4998574;28;20275;-76
2022/09/15 06:47:55;;;;;;;0.00;0.00;;;15.60;99.90;;;;;;5005606;28;20235;-75
2022/09/15 06:50:42;;;;;;;0.00;0.00;;;15.60;99.90;;;;;;5013594;28;20302;-76
2022/09/15 06:53:10;;;;;;;0.03;0.03;;;15.60;99.90;;;;;;4989487;28;20233;-76
2022/09/15 06:55:39;;;;;;;0.10;0.10;;;15.60;99.90;;;;;;4994675;28;20259;-77
2022/09/15 06:58:07;;;;;;;0.00;0.00;;;15.50;99.90;;;;;;5008191;28;20208;-75
2022/09/15 07:00:35;;;;;;;0.00;0.00;;;15.50;99.90;;;;;;5010069;28;20680;-75
2022/09/15 07:03:03;;;;;;;0.00;0.00;;;15.50;99.90;;;;;;5013506;28;20220;-76
2022/09/15 07:05:30;;;;;;;0.03;0.03;;;15.50;99.90;;;;;;5012662;28;20223;-75
2022/09/15 07:07:58;;;;;;;0.10;0.10;;;15.50;99.90;;;;;;5003179;28;20270;-76
2022/09/15 07:10:26;;;;;;;0.00;0.00;;;15.50;99.90;;;;;;4994630;28;20291;-75
2022/09/15 07:12:55;;;;;;;0.00;0.00;;;15.50;99.90;;;;;;4993001;28;20740;-76
2022/09/15 07:15:24;;;;;;;0.00;0.00;;;15.50;99.90;;;;;;4994613;28;20250;-75
2022/09/15 07:17:52;;;;;;;0.00;0.00;;;15.50;99.90;;;;;;4990884;28;20258;-74
2022/09/15 07:20:20;;;;;;;0.10;0.10;;;15.40;99.90;;;;;;5024325;23;20233;-75
2022/09/15 07:22:48;;;;;;;0.00;0.00;;;15.30;99.90;;;;;;4973490;28;20231;-74
2022/09/15 07:25:16;;;;;;;0.00;0.00;;;15.30;99.90;;;;;;4955123;28;20706;-75
2022/09/15 07:27:44;;;;;;;0.00;0.00;;;15.30;99.90;;;;;;4975398;28;20232;-75
2022/09/15 07:30:14;;;;;;;0.00;0.00;;;15.30;99.90;;;;;;4970474;28;20218;-74
2022/09/15 07:32:41;;;;;;;0.00;0.00;;;15.20;99.90;;;;;;4958737;28;20249;-74
2022/09/15 07:35:09;;;;;;;0.00;0.00;;;15.30;99.90;;;;;;4957087;29;20252;-75
2022/09/15 07:37:37;;;;;;;0.00;0.00;;;15.30;99.90;;;;;;4958537;28;20248;-74
2022/09/15 07:40:06;;;;;;;0.00;0.00;;;15.30;99.90;;;;;;4960170;28;20221;-75
2022/09/15 07:42:34;;;;;;;0.00;0.00;;;15.30;99.90;;;;;;4966906;28;20213;-74
2022/09/15 07:45:02;;;;;;;0.00;0.00;;;15.30;99.90;;;;;;4949360;28;20213;-74
2022/09/15 07:47:31;;;;;;;0.00;0.00;;;15.30;99.90;;;;;;4953164;28;20209;-75
2022/09/15 07:49:59;;;;;;;0.00;0.00;;;15.40;99.90;;;;;;4978406;28;20201;-75
2022/09/15 07:52:27;;;;;;;0.00;0.00;;;15.40;99.90;;;;;;4965336;28;20190;-74
2022/09/15 07:54:54;;;;;;;0.00;0.00;;;15.50;99.90;;;;;;4962585;29;20601;-75
2022/09/15 07:57:22;;;;;;;0.00;0.00;;;15.50;99.90;;;;;;4962465;28;20237;-75
2022/09/15 07:59:50;;;;;;;0.00;0.00;;;15.50;99.90;;;;;;4960142;29;20273;-75
2022/09/15 08:02:20;;;;;;;0.00;0.00;;;15.60;99.90;;;;;;4960633;28;20210;-75
2022/09/15 08:04:49;;;;;;;0.00;0.00;;;15.60;99.90;;;;;;4965661;28;20201;-75
2022/09/15 08:07:17;;;;;;;0.00;0.00;;;15.60;99.90;;;;;;4957797;28;20268;-75
2022/09/15 08:09:45;;;;;;;0.05;0.05;;;15.60;99.90;;;;;;4962177;28;20291;-75
2022/09/15 08:12:12;;;;;;;0.00;0.00;;;15.70;99.90;;;;;;4967335;28;20229;-75
2022/09/15 08:14:40;;;;;;;0.00;0.00;;;15.70;99.90;;;;;;4953430;29;20341;-75
2022/09/15 08:17:08;;;;;;;0.00;0.00;;;15.70;99.90;;;;;;4961721;28;20279;-75
2022/09/15 08:19:38;;;;;;;0.00;0.00;;;15.60;99.90;;;;;;4972227;28;20260;-75
2022/09/15 08:22:08;;;;;;;0.10;0.10;;;15.60;99.90;;;;;;4952966;28;20233;-75
2022/09/15 08:24:36;;;;;;;0.00;0.00;;;15.60;99.90;;;;;;4953135;29;20222;-74
2022/09/15 08:27:04;;;;;;;0.00;0.00;;;15.60;99.90;;;;;;4945653;28;20198;-75
2022/09/15 08:29:32;;;;;;;0.00;0.00;;;15.60;99.90;;;;;;4962372;28;20202;-75
2022/09/15 08:32:00;;;;;;;0.00;0.00;;;15.60;99.90;;;;;;4969289;28;20225;-75
2022/09/15 08:34:29;;;;;;;0.00;0.00;;;15.60;99.90;;;;;;4962123;28;20253;-75
2022/09/15 08:36:57;;;;;;;0.00;0.00;;;15.60;99.90;;;;;;4956183;28;20214;-75
2022/09/15 08:39:26;;;;;;;0.00;0.00;;;15.70;99.90;;;;;;4959644;28;20278;-75
2022/09/15 08:41:55;;;;;;;0.00;0.00;;;15.60;99.90;;;;;;4960666;28;20594;-75
2022/09/15 08:44:35;;;;;;;0.00;0.00;;;15.40;99.90;;;;;;4935871;29;20249;-75
2022/09/15 08:47:10;;;;;;;0.03;0.03;;;15.40;99.90;;;;;;4946794;28;20205;-75
2022/09/15 08:49:43;;;;;;;0.00;0.00;;;15.60;99.90;;;;;;4957250;29;20194;-75
2022/09/15 08:52:26;;;;;;;0.00;0.00;;;15.60;99.90;;;;;;4968029;28;20206;-75
2022/09/15 08:54:58;;;;;;;0.00;0.00;;;15.50;99.90;;;;;;4979394;28;20223;-75
2022/09/15 08:57:26;;;;;;;0.00;0.00;;;15.60;99.90;;;;;;4974018;28;20595;-76
2022/09/15 08:59:54;;;;;;;0.00;0.00;;;15.60;99.90;;;;;;4978984;28;20730;-75
2022/09/15 09:02:49;;;;;;;0.00;0.00;;;15.60;99.90;;;;;;4964980;28;20267;-75
2022/09/15 09:05:29;;;;;;;0.00;0.00;;;15.50;99.90;;;;;;4958911;28;20205;-74
2022/09/15 09:08:27;;;;;;;0.00;0.00;;;15.50;99.90;;;;;;4962139;28;20217;-75
2022/09/15 09:11:02;;;;;;;0.00;0.00;;;15.50;99.90;;;;;;4946892;28;20277;-75
2022/09/15 09:13:37;;;;;;;0.00;0.00;;;15.60;99.90;;;;;;4963860;28;20302;-75
2022/09/15 09:16:21;;;;;;;0.00;0.00;;;15.60;99.90;;;;;;4973390;28;20208;-75
2022/09/15 09:19:25;;;;;;;0.00;0.00;;;15.80;99.90;;;;;;4956360;29;20197;-75
2022/09/15 09:22:03;;;;;;;0.00;0.00;;;15.90;99.90;;;;;;4965560;28;20255;-75
2022/09/15 09:24:36;;;;;;;0.00;0.00;;;15.90;99.90;;;;;;4956104;29;20273;-75
2022/09/15 09:27:12;;;;;;;0.00;0.00;;;16.00;99.90;;;;;;4938793;29;20205;-75
2022/09/15 09:29:48;;;;;;;0.00;0.00;;;16.20;99.90;;;;;;4962874;28;20196;-75
2022/09/15 09:32:18;;;;;;;0.00;0.00;;;16.20;99.90;;;;;;4955827;28;20221;-75
2022/09/15 09:34:57;;;;;;;0.00;0.00;;;16.20;99.90;;;;;;4956040;28;20540;-75
2022/09/15 09:37:25;;;;;;;0.00;0.00;;;16.10;99.90;;;;;;4957870;28;20558;-74
2022/09/15 09:39:53;;;;;;;0.00;0.00;;;16.30;99.90;;;;;;4973364;28;20213;-75
2022/09/15 09:42:30;;;;;;;0.00;0.00;;;16.30;99.90;;;;;;4964016;28;20209;-75
2022/09/15 09:44:58;;;;;;;0.00;0.00;;;16.50;99.90;;;;;;4956569;29;20233;-74
2022/09/15 09:47:28;;;;;;;0.00;0.00;;;16.30;99.90;;;;;;4961801;28;20233;-75
2022/09/15 09:49:56;;;;;;;0.00;0.00;;;16.30;99.90;;;;;;4974845;28;21028;-75
2022/09/15 09:52:34;;;;;;;0.00;0.00;;;16.20;99.90;;;;;;4951592;29;20237;-75
2022/09/15 09:55:04;;;;;;;0.00;0.00;;;16.30;99.90;;;;;;4956321;29;20198;-75
2022/09/15 09:57:36;;;;;;;0.00;0.00;;;16.40;99.90;;;;;;4960693;28;20681;-75
2022/09/15 10:00:34;;;;;;;0.00;0.00;;;16.60;99.90;;;;;;4953976;28;20206;-74
2022/09/15 10:03:11;;;;;;;0.00;0.00;;;16.60;99.90;;;;;;4955919;28;20206;-75
2022/09/15 10:05:39;;;;;;;0.00;0.00;;;16.60;99.90;;;;;;4961381;28;20280;-76
2022/09/15 10:08:07;;;;;;;0.00;0.00;;;16.70;99.90;;;;;;4955426;29;20252;-75
2022/09/15 10:10:35;;;;;;;0.00;0.00;;;16.70;99.90;;;;;;4956187;28;20214;-75
2022/09/15 10:13:03;;;;;;;0.00;0.00;;;16.70;99.90;;;;;;4955485;28;20260;-75
2022/09/15 10:15:35;;;;;;;0.00;0.00;;;16.70;99.90;;;;;;4955309;28;20202;-76
2022/09/15 10:18:04;;;;;;;0.00;0.00;;;16.70;99.90;;;;;;4957317;28;20201;-75
2022/09/15 10:20:35;;;;;;;0.00;0.00;;;16.80;99.90;;;;;;4965107;28;20245;-75
2022/09/15 10:23:06;;;;;;;0.00;0.00;;;16.80;99.90;;;;;;4974324;28;20205;-76
2022/09/15 10:25:36;;;;;;;0.00;0.00;;;16.80;99.90;;;;;;4970169;28;20228;-75
2022/09/15 10:28:25;;;;;;;0.03;0.03;;;16.70;99.90;;;;;;4969241;28;20244;-75
2022/09/15 10:31:04;;;;;;;0.00;0.00;;;16.60;99.90;;;;;;4965642;28;20252;-75
2022/09/15 10:33:34;;;;;;;0.00;0.00;;;16.70;99.90;;;;;;4956992;28;20204;-75
2022/09/15 10:36:07;;;;;;;0.00;0.00;;;16.80;99.90;;;;;;4961548;28;20715;-75
2022/09/15 10:38:41;;;;;;;0.00;0.00;;;16.90;99.90;;;;;;4954608;28;20239;-76
2022/09/15 10:41:25;;;;;;;0.00;0.00;;;16.90;99.90;;;;;;4967901;28;20224;-75
2022/09/15 10:44:04;;;;;;;0.00;0.00;;;16.90;99.90;;;;;;4974203;28;20209;-75
2022/09/15 10:46:45;;;;;;;0.00;0.00;;;16.90;99.90;;;;;;4956563;28;20201;-75
2022/09/15 10:49:28;;;;;;;0.00;0.00;;;16.70;99.90;;;;;;4957073;28;20244;-75
2022/09/15 10:52:06;;;;;;;0.00;0.00;;;16.80;99.90;;;;;;4957005;28;20280;-75
2022/09/15 10:54:54;;;;;;;0.00;0.00;;;16.90;99.90;;;;;;4962483;28;20236;-75
2022/09/15 10:57:37;;;;;;;0.00;0.00;;;16.80;99.90;;;;;;4970318;28;20204;-75
2022/09/15 11:00:09;;;;;;;0.00;0.00;;;16.70;99.90;;;;;;4944110;28;20200;-75
2022/09/15 11:03:12;;;;;;;0.00;0.00;;;16.80;99.90;;;;;;4970760;28;20198;-75
2022/09/15 11:05:56;;;;;;;0.00;0.00;;;16.90;99.90;;;;;;4930864;28;20719;-75
2022/09/15 11:08:37;;;;;;;0.00;0.00;;;16.90;99.90;;;;;;4955560;28;20202;-75
2022/09/15 11:11:12;;;;;;;0.00;0.00;;;16.80;99.90;;;;;;4971042;28;20232;-75
2022/09/15 11:13:52;;;;;;;0.00;0.00;;;17.00;99.90;;;;;;4962399;28;20201;-76
2022/09/15 11:16:34;;;;;;;0.00;0.00;;;17.00;99.90;;;;;;4956206;28;20212;-76
2022/09/15 11:19:13;;;;;;;0.00;0.00;;;17.10;99.90;;;;;;4961394;28;20204;-75
2022/09/15 11:21:44;;;;;;;0.00;0.00;;;17.30;99.90;;;;;;4953481;28;20280;-75
2022/09/15 11:24:26;;;;;;;0.00;0.00;;;17.30;99.90;;;;;;4953925;28;20206;-76
2022/09/15 11:26:58;;;;;;;0.00;0.00;;;17.30;99.90;;;;;;4969539;28;20728;-75
2022/09/15 11:29:29;;;;;;;0.00;0.00;;;17.30;99.90;;;;;;4964850;28;20248;-75
2022/09/15 11:32:02;;;;;;;0.00;0.00;;;17.30;99.90;;;;;;4954024;28;20801;-75
2022/09/15 11:34:45;;;;;;;0.00;0.00;;;17.30;99.90;;;;;;4954694;28;20205;-75
2022/09/15 11:37:16;;;;;;;0.00;0.00;;;17.30;99.90;;;;;;4964794;28;20200;-76
2022/09/15 11:39:48;;;;;;;0.00;0.00;;;17.10;99.90;;;;;;4961378;28;20217;-76
2022/09/15 11:42:23;;;;;;;0.00;0.00;;;17.20;99.90;;;;;;4954810;28;20205;-76
2022/09/15 11:44:52;;;;;;;0.00;0.00;;;17.40;99.90;;;;;;4941500;28;20623;-76
2022/09/15 11:47:28;;;;;;;0.00;0.00;;;17.60;99.90;;;;;;4965813;28;20209;-76
2022/09/15 11:50:01;;;;;;;0.00;0.00;;;17.60;99.90;;;;;;4953636;28;20228;-76
2022/09/15 11:52:44;;;;;;;0.00;0.00;;;17.50;99.90;;;;;;4956800;29;20253;-75
2022/09/15 11:55:22;;;;;;;0.00;0.00;;;17.60;99.90;;;;;;4979991;28;20229;-75
2022/09/15 11:57:57;;;;;;;0.00;0.00;;;17.70;99.90;;;;;;4961470;28;20200;-76
2022/09/15 12:00:25;;;;;;;0.00;0.00;;;17.80;99.90;;;;;;4943905;28;20228;-76
2022/09/15 12:03:00;;;;;;;0.00;0.00;;;17.80;99.90;;;;;;4940850;28;20673;-76
2022/09/15 12:05:33;;;;;;;0.00;0.00;;;17.70;99.90;;;;;;4957923;28;20862;-76
2022/09/15 12:08:05;;;;;;;0.00;0.00;;;17.70;99.90;;;;;;4971180;28;20197;-75
2022/09/15 12:10:37;;;;;;;0.00;0.00;;;17.80;99.90;;;;;;4966422;28;20249;-75
2022/09/15 12:13:06;;;;;;;0.00;0.00;;;17.80;99.90;;;;;;4954470;28;20261;-75
2022/09/15 12:15:33;;;;;;;0.00;0.00;;;17.80;99.90;;;;;;4953353;28;20569;-76
2022/09/15 12:18:14;;;;;;;0.00;0.00;;;17.50;99.90;;;;;;4953081;28;20201;-76
2022/09/15 12:21:09;;;;;;;0.00;0.00;;;17.60;99.90;;;;;;4960255;28;20391;-76
2022/09/15 12:23:41;;;;;;;0.00;0.00;;;17.80;99.90;;;;;;4968759;28;20193;-76
2022/09/15 12:26:16;;;;;;;0.00;0.00;;;17.80;99.90;;;;;;4967670;28;20711;-76
2022/09/15 12:28:56;;;;;;;0.00;0.00;;;18.00;99.90;;;;;;4943067;28;20244;-76
2022/09/15 12:31:30;;;;;;;0.00;0.00;;;18.30;99.90;;;;;;4964731;28;20280;-76
2022/09/15 12:34:00;;;;;;;0.00;0.00;;;18.40;99.90;;;;;;4941081;29;20259;-76
2022/09/15 12:36:41;;;;;;;0.00;0.00;;;18.60;99.90;;;;;;4957196;28;20205;-76
2022/09/15 12:39:26;;;;;;;0.00;0.00;;;18.60;99.90;;;;;;4957231;28;20202;-76
2022/09/15 12:41:56;;;;;;;0.00;0.00;;;18.70;99.90;;;;;;4962722;28;20705;-76
2022/09/15 12:44:32;;;;;;;0.00;0.00;;;18.90;99.90;;;;;;4957637;29;20198;-76
2022/09/15 12:47:01;;;;;;;0.00;0.00;;;19.00;99.90;;;;;;4957314;28;20306;-76
2022/09/15 12:49:32;;;;;;;0.00;0.00;;;19.00;99.90;;;;;;4956917;28;20276;-76
2022/09/15 12:52:06;;;;;;;0.00;0.00;;;19.20;99.90;;;;;;4958991;28;20221;-75
2022/09/15 12:54:37;;;;;;;0.00;0.00;;;19.30;99.90;;;;;;4966293;28;20314;-76
2022/09/15 12:57:07;;;;;;;0.00;0.00;;;19.40;99.90;;;;;;4949798;28;20206;-76
2022/09/15 12:59:35;;;;;;;0.00;0.00;;;19.40;99.90;;;;;;4956338;28;20229;-76
2022/09/15 13:02:02;;;;;;;0.00;0.00;;;19.10;99.90;;;;;;4958189;28;20218;-76
2022/09/15 13:04:52;;;;;;;0.00;0.00;;;19.20;99.90;;;;;;4965572;28;20565;-76
2022/09/15 13:07:54;;;;;;;0.00;0.00;;;19.20;99.90;;;;;;4968996;28;20221;-77
2022/09/15 13:10:38;;;;;;;0.00;0.00;;;19.10;99.90;;;;;;4972981;28;20291;-76
2022/09/15 13:13:19;;;;;;;0.00;0.00;;;19.00;99.90;;;;;;4969859;28;20273;-76